Time;durP1;ratioP1;P1;durP2;ratioP2;P2;SDS_P1;SDS_P2;PMS_P1;PMS_P2;Temp;Humidity;BMP_temperature;BMP_pressure;BME280_temperature;BME280_humidity;BME280_pressure;Samples;Min_cycle;Max_cycle;Signal;HPM_P1;HPM_P2
2024/04/23 07:54:53;;;;;;;;;;;;;;;7.18;100.00;99822.44;5178015;27;20000;-86
2024/04/23 07:57:18;;;;;;;;;;;;;;;7.21;100.00;99821.47;5179164;27;20706;-86
2024/04/23 07:59:43;;;;;;;;;;;;;;;7.23;100.00;99817.88;5178857;27;20276;-85
2024/04/23 08:02:09;;;;;;;;;;;;;;;7.21;100.00;99822.34;5144899;27;19984;-82
2024/04/23 08:04:34;;;;;;;;;;;;;;;7.24;100.00;99818.75;5177801;27;19933;-82
2024/04/23 08:06:59;;;;;;;;;;;;;;;7.25;100.00;99816.06;5173975;27;19933;-86
2024/04/23 08:09:24;;;;;;;;;;;;;;;7.24;100.00;99813.47;5176627;27;20406;-84
2024/04/23 08:11:50;;;;;;;;;;;;;;;7.26;100.00;99819.59;5178832;27;19933;-82
2024/04/23 08:14:15;;;;;;;;;;;;;;;7.26;100.00;99816.94;5177130;27;19940;-83
2024/04/23 08:16:40;;;;;;;;;;;;;;;7.26;100.00;99816.94;5175317;27;19932;-82
2024/04/23 08:19:06;;;;;;;;;;;;;;;7.27;100.00;99816.03;5178665;27;19936;-82
2024/04/23 08:21:31;;;;;;;;;;;;;;;7.26;100.00;99819.59;5173894;27;20005;-83
2024/04/23 08:23:56;;;;;;;;;;;;;;;7.26;100.00;99817.81;5176016;27;19933;-82
2024/04/23 08:26:21;;;;;;;;;;;;;;;7.27;100.00;99821.28;5175317;27;19932;-82
2024/04/23 08:28:48;;;;;;;;;;;;;;;7.28;100.00;99817.75;5178522;27;19932;-83
2024/04/23 08:31:15;;;;;;;;;;;;;;;7.30;100.00;99823.84;5177793;27;20314;-82
2024/04/23 08:33:41;;;;;;;;;;;;;;;7.30;100.00;99821.22;5176512;27;20388;-83
2024/04/23 08:36:06;;;;;;;;;;;;;;;7.27;100.00;99816.91;5178184;27;20009;-82
2024/04/23 08:38:31;;;;;;;;;;;;;;;7.29;100.00;99814.19;5176871;27;19932;-90
2024/04/23 08:40:56;;;;;;;;;;;;;;;7.28;100.00;99808.06;5149774;27;19932;-79
2024/04/23 08:43:25;;;;;;;;;;;;;;;7.31;100.00;99817.69;5173386;27;20392;-82
2024/04/23 08:45:51;;;;;;;;;;;;;;;7.34;100.00;99812.31;5173292;27;19964;-83
2024/04/23 08:48:17;;;;;;;;;;;;;;;7.32;100.00;99807.97;5142245;27;20361;-82
2024/04/23 08:50:42;;;;;;;;;;;;;;;7.32;100.00;99808.84;5176722;27;20269;-82
2024/04/23 08:53:08;;;;;;;;;;;;;;;7.35;100.00;99807.91;5152003;27;19932;-82
2024/04/23 08:55:41;;;;;;;;;;;;;;;7.33;100.00;99807.09;5209194;27;19932;-82
2024/04/23 08:58:06;;;;;;;;;;;;;;;7.34;100.00;99809.69;5175716;27;19944;-84
2024/04/23 09:00:32;;;;;;;;;;;;;;;7.31;100.00;99811.50;5211085;27;19939;-82
2024/04/23 09:03:00;;;;;;;;;;;;;;;7.33;100.00;99804.44;5204698;27;20333;-85
2024/04/23 09:05:26;;;;;;;;;;;;;;;7.34;100.00;99811.44;5210359;27;19932;-82
2024/04/23 09:07:51;;;;;;;;;;;;;;;7.33;100.00;99804.44;5233427;27;20008;-83
2024/04/23 09:10:17;;;;;;;;;;;;;;;7.31;100.00;99801.84;5236757;27;19932;-82
2024/04/23 09:12:46;;;;;;;;;;;;;;;7.33;100.00;99805.31;5209574;27;19936;-82
2024/04/23 09:15:12;;;;;;;;;;;;;;;7.31;100.00;99796.59;5210881;27;19939;-82
2024/04/23 09:17:37;;;;;;;;;;;;;;;7.32;100.00;99797.44;5208671;27;20346;-82
2024/04/23 09:20:04;;;;;;;;;;;;;;;7.33;100.00;99794.75;5236486;27;19939;-82
2024/04/23 09:22:29;;;;;;;;;;;;;;;7.33;100.00;99786.84;5209126;27;19939;-81
2024/04/23 09:25:04;;;;;;;;;;;;;;;7.33;100.00;99789.50;5207455;27;19932;-81
2024/04/23 09:27:36;;;;;;;;;;;;;;;7.33;100.00;99786.84;5210433;27;19939;-82
2024/04/23 09:30:01;;;;;;;;;;;;;;;7.36;100.00;99784.13;5207000;27;19940;-83
2024/04/23 09:32:27;;;;;;;;;;;;;;;7.38;100.00;99779.66;5235854;27;20004;-82
2024/04/23 09:34:55;;;;;;;;;;;;;;;7.38;100.00;99778.81;5206052;27;20110;-82
2024/04/23 09:37:20;;;;;;;;;;;;;;;8.11;100.00;99778.28;5208012;27;19932;-77
2024/04/23 09:39:45;;;;;;;;;;;;;;;7.84;100.00;99774.75;5208927;27;20275;-83
2024/04/23 09:42:11;;;;;;;;;;;;;;;7.66;100.00;99770.94;5205008;27;19932;-83
2024/04/23 09:44:37;;;;;;;;;;;;;;;7.58;100.00;99780.84;5208543;27;19964;-86
2024/04/23 09:47:06;;;;;;;;;;;;;;;7.51;100.00;99774.03;5207228;27;19956;-86
2024/04/23 09:49:31;;;;;;;;;;;;;;;7.49;100.00;99771.44;5210110;27;20267;-85
2024/04/23 09:51:56;;;;;;;;;;;;;;;7.49;100.00;99770.59;5209180;27;19932;-88
2024/04/23 09:54:22;;;;;;;;;;;;;;;7.50;100.00;99764.38;5187701;27;20004;-83
2024/04/23 09:56:47;;;;;;;;;;;;;;;7.52;100.00;99762.59;5175807;27;19966;-84
2024/04/23 09:59:14;;;;;;;;;;;;;;;7.52;100.00;99768.72;5174816;27;19933;-81
2024/04/23 10:01:42;;;;;;;;;;;;;;;7.53;100.00;99764.28;5177413;27;20360;-80
2024/04/23 10:04:09;;;;;;;;;;;;;;;7.52;100.00;99754.69;5177388;27;19983;-85
2024/04/23 10:06:39;;;;;;;;;;;;;;;7.53;100.00;99759.91;5175622;27;19939;-85
2024/04/23 10:09:08;;;;;;;;;;;;;;;7.52;100.00;99752.91;5170913;27;20280;-83
2024/04/23 10:11:35;;;;;;;;;;;;;;;7.52;100.00;99747.63;5172887;27;19933;-87
2024/04/23 10:14:22;;;;;;;;;;;;;;;7.52;100.00;99741.50;5175460;27;20004;-87
2024/04/23 10:16:50;;;;;;;;;;;;;;;7.51;100.00;99734.47;5161251;27;20260;-87
2024/04/23 10:19:16;;;;;;;;;;;;;;;7.53;100.00;99740.56;5175463;27;19937;-84
2024/04/23 10:21:43;;;;;;;;;;;;;;;7.51;100.00;99734.47;5146542;27;19932;-86
2024/04/23 10:24:09;;;;;;;;;;;;;;;7.51;100.00;99735.34;5175839;27;20403;-88
2024/04/23 10:26:40;;;;;;;;;;;;;;;7.51;100.00;99735.34;5148355;27;19968;-88
2024/04/23 10:29:09;;;;;;;;;;;;;;;7.53;100.00;99740.56;5159610;27;20006;-88
2024/04/23 10:31:35;;;;;;;;;;;;;;;7.50;100.00;99738.00;5146434;27;19932;-89
2024/04/23 10:34:04;;;;;;;;;;;;;;;7.53;100.00;99748.47;5175120;27;19932;-89
2024/04/23 10:36:30;;;;;;;;;;;;;;;7.51;100.00;99734.47;5147409;27;19956;-88
2024/04/23 10:39:02;;;;;;;;;;;;;;;7.53;100.00;99737.94;5175456;27;20023;-91
2024/04/23 10:41:28;;;;;;;;;;;;;;;7.51;100.00;99735.34;5175240;27;19996;-87
2024/04/23 10:43:54;;;;;;;;;;;;;;;7.52;100.00;99733.59;5176617;27;19940;-85
2024/04/23 10:46:20;;;;;;;;;;;;;;;7.53;100.00;99727.38;5176803;27;19939;-88
2024/04/23 10:48:51;;;;;;;;;;;;;;;7.55;100.00;99728.22;5147886;27;20019;-86
2024/04/23 10:51:18;;;;;;;;;;;;;;;7.56;100.00;99732.56;5143051;27;19936;-89
2024/04/23 10:53:43;;;;;;;;;;;;;;;7.55;100.00;99721.16;5156271;27;19936;-90
2024/04/23 10:56:11;;;;;;;;;;;;;;;7.54;100.00;99715.94;5207875;27;19933;-91
2024/04/23 10:58:38;;;;;;;;;;;;;;;7.58;100.00;99723.69;5232214;27;19940;-88
2024/04/23 11:01:03;;;;;;;;;;;;;;;7.58;100.00;99722.84;5208301;27;19936;-90
2024/04/23 11:03:30;;;;;;;;;;;;;;;7.58;100.00;99715.78;5203862;27;19947;-89
2024/04/23 11:06:00;;;;;;;;;;;;;;;7.56;100.00;99712.34;5206125;27;19944;-90
2024/04/23 11:08:26;;;;;;;;;;;;;;;7.59;100.00;99706.09;5206833;27;20291;-90
2024/04/23 11:10:52;;;;;;;;;;;;;;;7.58;100.00;99705.25;5235860;27;19932;-87
2024/04/23 11:13:43;;;;;;;;;;;;;;;7.58;100.00;99704.38;5238217;27;19936;-88
2024/04/23 11:16:16;;;;;;;;;;;;;;;7.57;100.00;99694.75;5203934;27;19936;-90
2024/04/23 11:18:42;;;;;;;;;;;;;;;7.57;100.00;99694.75;5223474;27;19943;-88
2024/04/23 11:21:08;;;;;;;;;;;;;;;7.61;100.00;99696.34;5211852;27;20380;-88
2024/04/23 11:23:40;;;;;;;;;;;;;;;7.63;100.00;99692.75;5236692;27;20365;-88
2024/04/23 11:26:11;;;;;;;;;;;;;;;7.63;100.00;99678.72;5208493;27;19980;-88
2024/04/23 11:28:37;;;;;;;;;;;;;;;7.59;100.00;99685.84;5210032;27;19964;-88
2024/04/23 11:31:02;;;;;;;;;;;;;;;7.61;100.00;99673.50;5237400;27;19940;-87
2024/04/23 11:33:34;;;;;;;;;;;;;;;7.64;100.00;99681.31;5212413;27;20264;-87
2024/04/23 11:36:02;;;;;;;;;;;;;;;7.65;100.00;99684.81;5211725;27;19932;-94
2024/04/23 11:38:38;;;;;;;;;;;;;;;7.65;100.00;99682.16;5236152;27;19939;-84
2024/04/23 11:41:14;;;;;;;;;;;;;;;7.63;100.00;99673.44;5211430;27;20375;-82
2024/04/23 11:43:47;;;;;;;;;;;;;;;7.63;100.00;99676.09;5211944;27;19932;-90
2024/04/23 11:46:13;;;;;;;;;;;;;;;7.65;100.00;99663.72;5237089;27;19939;-85
2024/04/23 11:48:41;;;;;;;;;;;;;;;7.67;100.00;99666.28;5210624;27;19932;-90
2024/04/23 11:51:06;;;;;;;;;;;;;;;7.66;100.00;99664.56;5208956;27;20253;-83
2024/04/23 11:53:32;;;;;;;;;;;;;;;7.69;100.00;99665.34;5209537;27;20003;-80
2024/04/23 11:55:57;;;;;;;;;;;;;;;7.70;100.00;99658.28;5209151;27;19932;-88
2024/04/23 11:58:25;;;;;;;;;;;;;;;7.69;100.00;99652.16;5208393;27;19944;-89
2024/04/23 12:00:50;;;;;;;;;;;;;;;7.70;100.00;99656.50;5182185;27;19932;-86
2024/04/23 12:03:16;;;;;;;;;;;;;;;7.69;100.00;99652.16;5182284;27;20278;-85
2024/04/23 12:05:41;;;;;;;;;;;;;;;7.67;100.00;99647.84;5208767;27;19939;-85
2024/04/23 12:08:07;;;;;;;;;;;;;;;7.69;100.00;99644.25;5199670;27;19940;-87
2024/04/23 12:10:33;;;;;;;;;;;;;;;7.71;100.00;99637.13;5230947;27;19941;-90
2024/04/23 12:13:00;;;;;;;;;;;;;;;7.72;100.00;99638.88;5206069;27;19940;-81
2024/04/23 12:15:25;;;;;;;;;;;;;;;7.72;100.00;99641.50;5234443;27;19947;-85
2024/04/23 12:17:51;;;;;;;;;;;;;;;7.72;100.00;99638.00;5237303;27;19960;-86
2024/04/23 12:20:16;;;;;;;;;;;;;;;7.76;100.00;99642.25;5205898;27;20414;-86
2024/04/23 12:22:44;;;;;;;;;;;;;;;7.75;100.00;99644.00;5204376;27;20275;-86
2024/04/23 12:25:10;;;;;;;;;;;;;;;7.76;100.00;99640.47;5206692;27;19932;-87
2024/04/23 12:27:36;;;;;;;;;;;;;;;7.73;100.00;99645.00;5207355;27;19939;-85
2024/04/23 12:30:09;;;;;;;;;;;;;;;7.72;100.00;99641.50;5210347;27;19932;-88
2024/04/23 12:32:34;;;;;;;;;;;;;;;7.71;100.00;99637.13;5208984;27;19936;-87
2024/04/23 12:34:59;;;;;;;;;;;;;;;7.74;100.00;99631.75;5207525;27;19984;-90
2024/04/23 12:37:25;;;;;;;;;;;;;;;7.74;100.00;99631.75;5207804;27;20004;-87
2024/04/23 12:39:51;;;;;;;;;;;;;;;7.76;100.00;99634.34;5208777;27;19940;-88
2024/04/23 12:42:19;;;;;;;;;;;;;;;7.77;100.00;99628.13;5186437;27;19939;-86
2024/04/23 12:44:47;;;;;;;;;;;;;;;7.77;100.00;99623.75;5177891;27;19932;-88
2024/04/23 12:47:15;;;;;;;;;;;;;;;7.78;100.00;99622.81;5208928;27;19960;-89
2024/04/23 12:49:40;;;;;;;;;;;;;;;7.78;100.00;99617.53;5178483;27;20040;-86
2024/04/23 12:52:06;;;;;;;;;;;;;;;7.78;100.00;99617.53;5169217;27;19952;-88
2024/04/23 12:54:54;;;;;;;;;;;;;;;7.80;100.00;99607.81;5209177;27;19932;-88
2024/04/23 12:57:22;;;;;;;;;;;;;;;7.84;100.00;99613.00;5169289;27;19936;-89
2024/04/23 12:59:50;;;;;;;;;;;;;;;7.82;100.00;99608.63;5209953;27;19944;-88
2024/04/23 13:02:20;;;;;;;;;;;;;;;7.81;100.00;99606.88;5210949;27;19932;-87
2024/04/23 13:04:46;;;;;;;;;;;;;;;7.80;100.00;99601.66;5182762;27;19960;-89
2024/04/23 13:07:11;;;;;;;;;;;;;;;7.80;100.00;99604.28;5202351;27;19932;-88
2024/04/23 13:09:36;;;;;;;;;;;;;;;7.79;100.00;99594.69;5208861;27;19932;-86
2024/04/23 13:12:09;;;;;;;;;;;;;;;7.79;100.00;99595.53;5210113;27;20548;-89
2024/04/23 13:14:34;;;;;;;;;;;;;;;7.82;100.00;99590.16;5206334;27;20337;-84
2024/04/23 13:16:59;;;;;;;;;;;;;;;7.84;100.00;99578.69;5209551;27;20012;-87
2024/04/23 13:19:25;;;;;;;;;;;;;;;7.91;100.00;99581.03;5205866;27;20268;-87
2024/04/23 13:21:50;;;;;;;;;;;;;;;7.91;100.00;99580.19;5208724;27;19932;-87
2024/04/23 13:24:18;;;;;;;;;;;;;;;7.90;100.00;99578.50;5208487;27;19940;-90
2024/04/23 13:26:43;;;;;;;;;;;;;;;7.90;100.00;99578.50;5210650;27;19964;-84
2024/04/23 13:29:12;;;;;;;;;;;;;;;7.90;100.00;99586.41;5209252;27;19932;-91
2024/04/23 13:31:39;;;;;;;;;;;;;;;7.88;100.00;99577.66;5210660;27;19932;-90
2024/04/23 13:34:07;;;;;;;;;;;;;;;7.90;100.00;99576.69;5210258;27;19936;-88
2024/04/23 13:36:32;;;;;;;;;;;;;;;7.91;100.00;99574.91;5181451;27;20336;-87
2024/04/23 13:38:57;;;;;;;;;;;;;;;7.89;100.00;99571.47;5205794;27;20010;-89
2024/04/23 13:41:25;;;;;;;;;;;;;;;7.88;100.00;99568.00;5210457;27;20003;-88
2024/04/23 13:43:52;;;;;;;;;;;;;;;7.89;100.00;99567.06;5178230;27;19932;-87
2024/04/23 13:46:18;;;;;;;;;;;;;;;7.90;100.00;99562.66;5206995;27;19973;-90
2024/04/23 13:48:43;;;;;;;;;;;;;;;7.90;100.00;99555.59;5207852;27;20311;-83
2024/04/23 13:51:08;;;;;;;;;;;;;;;7.89;100.00;99560.91;5210337;27;19936;-87
2024/04/23 13:53:44;;;;;;;;;;;;;;;7.88;100.00;99548.63;5177978;27;19932;-87
2024/04/23 13:56:10;;;;;;;;;;;;;;;7.88;100.00;99553.91;5210121;27;19932;-87
2024/04/23 13:58:35;;;;;;;;;;;;;;;7.91;100.00;99551.16;5209645;27;19939;-87
2024/04/23 14:01:09;;;;;;;;;;;;;;;7.90;100.00;99554.75;5210432;27;19932;-89
2024/04/23 14:03:35;;;;;;;;;;;;;;;7.92;100.00;99552.91;5199069;27;19937;-91
2024/04/23 14:06:07;;;;;;;;;;;;;;;7.93;100.00;99549.31;5188672;27;19939;-91
2024/04/23 14:08:35;;;;;;;;;;;;;;;7.90;100.00;99539.75;5175013;27;19960;-91
2024/04/23 14:11:01;;;;;;;;;;;;;;;7.93;100.00;99539.66;5178284;27;19952;-88
2024/04/23 14:13:39;;;;;;;;;;;;;;;;;;;;;
2024/04/23 14:16:11;;;;;;;;;;;;;;;7.94;100.00;99532.59;5210006;27;19939;-92
2024/04/23 14:18:44;;;;;;;;;;;;;;;7.97;100.00;99535.13;5209195;27;19933;-88
2024/04/23 14:21:12;;;;;;;;;;;;;;;8.00;100.00;99532.38;5181642;27;19961;-88
2024/04/23 14:23:45;;;;;;;;;;;;;;;8.00;100.00;99529.75;5205819;27;19932;-88
2024/04/23 14:26:21;;;;;;;;;;;;;;;7.99;100.00;99526.25;5178431;27;19979;-88
2024/04/23 14:28:47;;;;;;;;;;;;;;;7.98;100.00;99523.66;5204895;27;19932;-88
2024/04/23 14:31:12;;;;;;;;;;;;;;;7.98;100.00;99519.25;5192958;27;19932;-87
2024/04/23 14:33:43;;;;;;;;;;;;;;;8.00;100.00;99522.66;5191517;27;19932;-91
2024/04/23 14:36:09;;;;;;;;;;;;;;;8.02;100.00;99516.50;5179397;27;19985;-92
2024/04/23 14:38:34;;;;;;;;;;;;;;;8.02;100.00;99514.69;5195100;27;19974;-90
2024/04/23 14:41:02;;;;;;;;;;;;;;;8.02;100.00;99519.97;5209678;27;19952;-91
2024/04/23 14:43:31;;;;;;;;;;;;;;;8.03;100.00;99507.66;5209099;27;19932;-87
2024/04/23 14:46:09;;;;;;;;;;;;;;;8.04;100.00;99512.00;5210895;27;19940;-88
2024/04/23 14:48:37;;;;;;;;;;;;;;;8.05;100.00;99509.31;5211355;27;19932;-91
2024/04/23 14:51:20;;;;;;;;;;;;;;;8.05;100.00;99509.31;5183134;27;19957;-93
2024/04/23 14:53:46;;;;;;;;;;;;;;;8.06;100.00;99503.13;5196076;27;20276;-92
2024/04/23 14:56:13;;;;;;;;;;;;;;;8.05;100.00;99498.75;5149631;27;19933;-91
2024/04/23 14:58:49;;;;;;;;;;;;;;;8.07;100.00;99496.91;5175343;27;19939;-89
2024/04/23 15:01:14;;;;;;;;;;;;;;;8.08;100.00;99496.00;5177429;27;19936;-91
2024/04/23 15:03:39;;;;;;;;;;;;;;;8.09;100.00;99495.09;5176845;27;19944;-90
2024/04/23 15:06:16;;;;;;;;;;;;;;;8.09;100.00;99489.81;5149519;27;19936;-87
2024/04/23 15:08:42;;;;;;;;;;;;;;;8.11;100.00;99487.97;5160396;27;19939;-90
2024/04/23 15:11:08;;;;;;;;;;;;;;;8.13;100.00;99491.41;5172752;27;19937;-90
2024/04/23 15:13:34;;;;;;;;;;;;;;;8.12;100.00;99483.56;5149571;27;20004;-85
2024/04/23 15:16:09;;;;;;;;;;;;;;;8.14;100.00;99495.78;5173580;27;19945;-89
2024/04/23 15:18:37;;;;;;;;;;;;;;;8.15;100.00;99484.31;5149834;27;19936;-87
2024/04/23 15:21:06;;;;;;;;;;;;;;;8.15;100.00;99494.00;5174383;27;19961;-83
2024/04/23 15:23:31;;;;;;;;;;;;;;;8.17;100.00;99485.13;5174230;27;20284;-88
2024/04/23 15:26:04;;;;;;;;;;;;;;;8.16;100.00;99487.81;5149468;27;19932;-89
2024/04/23 15:28:30;;;;;;;;;;;;;;;8.16;100.00;99486.03;5149726;27;19956;-82
2024/04/23 15:30:59;;;;;;;;;;;;;;;8.18;100.00;99488.59;5175525;27;19943;-81
2024/04/23 15:33:24;;;;;;;;;;;;;;;8.19;100.00;99485.06;5150278;27;20344;-88
2024/04/23 15:35:50;;;;;;;;;;;;;;;8.19;100.00;99488.53;5148263;27;19936;-83
2024/04/23 15:38:15;;;;;;;;;;;;;;;8.18;100.00;99489.47;5146151;27;19940;-88
2024/04/23 15:40:40;;;;;;;;;;;;;;;8.22;100.00;99484.94;5177803;27;20423;-91
2024/04/23 15:43:05;;;;;;;;;;;;;;;8.22;100.00;99481.41;5147506;27;20035;-84
2024/04/23 15:45:34;;;;;;;;;;;;;;;8.19;100.00;99480.63;5149545;27;20372;-82
2024/04/23 15:47:59;;;;;;;;;;;;;;;8.22;100.00;99484.06;5176307;27;19932;-90
2024/04/23 15:50:34;;;;;;;;;;;;;;;8.21;100.00;99483.22;5148212;27;19940;-89
2024/04/23 15:52:59;;;;;;;;;;;;;;;8.22;100.00;99481.41;5156306;27;19932;-88
2024/04/23 15:55:27;;;;;;;;;;;;;;;8.23;100.00;99477.88;5214998;27;19939;-88
2024/04/23 15:57:53;;;;;;;;;;;;;;;8.20;100.00;99470.94;5242448;27;19940;-87
2024/04/23 16:00:20;;;;;;;;;;;;;;;8.22;100.00;99479.66;5214976;27;20439;-88
2024/04/23 16:02:48;;;;;;;;;;;;;;;8.23;100.00;99483.16;5244564;27;19932;-88
2024/04/23 16:05:13;;;;;;;;;;;;;;;8.23;100.00;99476.09;5242525;27;20410;-89
2024/04/23 16:07:41;;;;;;;;;;;;;;;8.25;100.00;99479.56;5227732;27;19932;-90
2024/04/23 16:10:12;;;;;;;;;;;;;;;8.23;100.00;99476.09;5244033;27;20078;-89
2024/04/23 16:12:37;;;;;;;;;;;;;;;8.24;100.00;99475.19;5242024;27;20003;-89
2024/04/23 16:15:03;;;;;;;;;;;;;;;8.23;100.00;99475.22;5244535;27;20435;-89
2024/04/23 16:17:28;;;;;;;;;;;;;;;8.23;100.00;99467.31;5229938;27;19931;-89
2024/04/23 16:20:04;;;;;;;;;;;;;;;8.26;100.00;99472.47;5244717;27;19931;-89
2024/04/23 16:22:32;;;;;;;;;;;;;;;8.27;100.00;99471.56;5213403;27;19939;-90
2024/04/23 16:25:13;;;;;;;;;;;;;;;8.28;100.00;99468.88;5242823;27;19932;-91
2024/04/23 16:27:38;;;;;;;;;;;;;;;8.29;100.00;99462.66;5214759;27;19932;-81
2024/04/23 16:30:06;;;;;;;;;;;;;;;8.31;100.00;99473.16;5244429;27;19939;-89
2024/04/23 16:32:54;;;;;;;;;;;;;;;8.30;100.00;99455.63;5242814;27;20382;-89
2024/04/23 16:35:20;;;;;;;;;;;;;;;8.30;100.00;99466.19;5213511;27;19976;-88
2024/04/23 16:37:58;;;;;;;;;;;;;;;8.29;100.00;99465.28;5241254;27;19942;-88
2024/04/23 16:40:23;;;;;;;;;;;;;;;8.32;100.00;99472.25;5213414;27;20020;-88
2024/04/23 16:42:49;;;;;;;;;;;;;;;8.35;100.00;99466.84;5242559;27;19932;-81
2024/04/23 16:45:16;;;;;;;;;;;;;;;8.33;100.00;99468.69;5244472;27;19979;-94
2024/04/23 16:47:44;;;;;;;;;;;;;;;8.33;100.00;99460.78;5214393;27;19959;-88
2024/04/23 16:50:09;;;;;;;;;;;;;;;8.33;100.00;99463.41;5242639;27;20003;-88
2024/04/23 16:52:37;;;;;;;;;;;;;;;8.34;100.00;99463.38;5213523;27;19939;-89
2024/04/23 16:55:05;;;;;;;;;;;;;;;8.35;100.00;99453.66;5214370;27;19936;-88
2024/04/23 16:57:30;;;;;;;;;;;;;;;8.36;100.00;99458.03;5240973;27;19940;-89
2024/04/23 17:00:06;;;;;;;;;;;;;;;;;;;;;
2024/04/23 17:02:31;;;;;;;;;;;;;;;8.37;100.00;99450.00;5241119;27;19932;-89
2024/04/23 17:05:06;;;;;;;;;;;;;;;8.37;100.00;99459.72;5240934;27;19931;-89
2024/04/23 17:07:42;;;;;;;;;;;;;;;8.38;100.00;99456.19;5210656;27;19939;-89
2024/04/23 17:10:08;;;;;;;;;;;;;;;8.39;100.00;99455.22;5240198;27;19932;-89
2024/04/23 17:12:36;;;;;;;;;;;;;;;8.39;100.00;99459.66;5213323;27;19942;-89
2024/04/23 17:15:01;;;;;;;;;;;;;;;8.39;100.00;99460.50;5212940;27;19932;-88
2024/04/23 17:17:27;;;;;;;;;;;;;;;8.39;100.00;99455.22;5241243;27;19946;-87
2024/04/23 17:19:53;;;;;;;;;;;;;;;8.39;100.00;99460.50;5240539;27;19963;-88
2024/04/23 17:22:26;;;;;;;;;;;;;;;8.41;100.00;99460.47;5241047;27;19932;-89
2024/04/23 17:24:53;;;;;;;;;;;;;;;8.42;100.00;99455.13;5241987;27;19938;-90
2024/04/23 17:27:19;;;;;;;;;;;;;;;8.41;100.00;99452.53;5242158;27;19947;-88
2024/04/23 17:29:46;;;;;;;;;;;;;;;8.39;100.00;99449.94;5228273;27;19932;-90
2024/04/23 17:32:15;;;;;;;;;;;;;;;8.42;100.00;99462.19;5241914;27;19938;-88
2024/04/23 17:35:00;;;;;;;;;;;;;;;8.41;100.00;99455.19;5243639;27;19935;-89
2024/04/23 17:37:28;;;;;;;;;;;;;;;8.42;100.00;99455.13;5212437;27;19944;-87
2024/04/23 17:39:53;;;;;;;;;;;;;;;8.42;100.00;99449.84;5243423;27;19931;-84
2024/04/23 17:42:20;;;;;;;;;;;;;;;8.44;100.00;99452.44;5243769;27;20001;-87
2024/04/23 17:44:45;;;;;;;;;;;;;;;8.47;100.00;99461.13;5243267;27;19943;-86
2024/04/23 17:47:11;;;;;;;;;;;;;;;8.45;100.00;99457.66;5243388;27;19932;-87
2024/04/23 17:49:39;;;;;;;;;;;;;;;8.45;100.00;99462.94;5186652;27;20298;-87
2024/04/23 17:52:04;;;;;;;;;;;;;;;8.45;100.00;99455.03;5226405;27;20341;-86
2024/04/23 17:54:30;;;;;;;;;;;;;;;8.46;100.00;99456.75;5181051;27;19944;-87
2024/04/23 17:56:55;;;;;;;;;;;;;;;8.45;100.00;99449.75;5207879;27;20008;-87
2024/04/23 17:59:20;;;;;;;;;;;;;;;8.47;100.00;99457.63;5206811;27;19936;-84
2024/04/23 18:01:45;;;;;;;;;;;;;;;8.45;100.00;99455.03;5232522;27;19932;-86
2024/04/23 18:04:11;;;;;;;;;;;;;;;8.47;100.00;99462.88;5236025;27;20003;-86
2024/04/23 18:06:36;;;;;;;;;;;;;;;8.47;100.00;99455.84;5234544;27;19934;-90
2024/04/23 18:09:01;;;;;;;;;;;;;;;8.48;100.00;99460.19;5208475;27;19940;-91
2024/04/23 18:11:29;;;;;;;;;;;;;;;8.48;100.00;99462.84;5209168;27;20469;-91
2024/04/23 18:13:54;;;;;;;;;;;;;;;8.48;100.00;99459.34;5210055;27;19943;-81
2024/04/23 18:16:20;;;;;;;;;;;;;;;8.50;100.00;99462.78;5205285;27;19932;-86
2024/04/23 18:18:45;;;;;;;;;;;;;;;8.48;100.00;99454.91;5203159;27;19951;-87
2024/04/23 18:21:11;;;;;;;;;;;;;;;8.48;100.00;99462.84;5207572;27;19933;-89
2024/04/23 18:23:37;;;;;;;;;;;;;;;8.50;100.00;99471.56;5206570;27;20376;-89
2024/04/23 18:26:05;;;;;;;;;;;;;;;8.50;100.00;99463.66;5235766;27;19932;-88
2024/04/23 18:28:30;;;;;;;;;;;;;;;8.51;100.00;99465.34;5207644;27;19932;-88
2024/04/23 18:30:57;;;;;;;;;;;;;;;8.51;100.00;99465.34;5208543;27;19968;-89
2024/04/23 18:33:23;;;;;;;;;;;;;;;8.52;100.00;99472.38;5208469;27;19933;-88
2024/04/23 18:35:49;;;;;;;;;;;;;;;8.52;100.00;99475.00;5233095;27;19968;-85
2024/04/23 18:38:15;;;;;;;;;;;;;;;8.53;100.00;99476.72;5233332;27;19943;-88
2024/04/23 18:40:40;;;;;;;;;;;;;;;8.52;100.00;99482.03;5234787;27;20365;-86
2024/04/23 18:43:05;;;;;;;;;;;;;;;8.51;100.00;99470.63;5209149;27;20003;-87
2024/04/23 18:45:30;;;;;;;;;;;;;;;8.53;100.00;99478.50;5207685;27;19940;-88
2024/04/23 18:47:57;;;;;;;;;;;;;;;8.51;100.00;99470.63;5233257;27;20365;-88
2024/04/23 18:50:22;;;;;;;;;;;;;;;8.53;100.00;99474.06;5233668;27;20254;-88
2024/04/23 18:52:48;;;;;;;;;;;;;;;8.55;100.00;99474.00;5146018;27;1732856;-86
2024/04/23 18:55:13;;;;;;;;;;;;;;;8.52;100.00;99469.72;5239226;27;19964;-88
2024/04/23 18:57:39;;;;;;;;;;;;;;;8.52;100.00;99482.94;5236185;27;19932;-85
2024/04/23 19:00:04;;;;;;;;;;;;;;;8.54;100.00;99482.88;5235137;27;19932;-85
2024/04/23 19:02:33;;;;;;;;;;;;;;;8.54;100.00;99486.38;5240204;27;19975;-85
2024/04/23 19:05:00;;;;;;;;;;;;;;;8.55;100.00;99481.94;5242085;27;19938;-87
2024/04/23 19:07:25;;;;;;;;;;;;;;;8.54;100.00;99473.16;5240186;27;19939;-86
2024/04/23 19:09:56;;;;;;;;;;;;;;;8.54;100.00;99470.53;5239849;27;19940;-92
2024/04/23 19:12:21;;;;;;;;;;;;;;;8.54;100.00;99480.22;5240356;27;20283;-84
2024/04/23 19:14:48;;;;;;;;;;;;;;;8.56;100.00;99482.81;5237784;27;19936;-84
2024/04/23 19:17:14;;;;;;;;;;;;;;;8.56;100.00;99478.38;5239851;27;20375;-89
2024/04/23 19:19:39;;;;;;;;;;;;;;;8.56;100.00;99474.88;5240315;27;19939;-83
2024/04/23 19:22:04;;;;;;;;;;;;;;;8.57;100.00;99481.88;5232831;27;20275;-84
2024/04/23 19:24:30;;;;;;;;;;;;;;;8.56;100.00;99485.44;5238980;27;20286;-83
2024/04/23 19:26:55;;;;;;;;;;;;;;;8.57;100.00;99487.16;5239045;27;19935;-84
2024/04/23 19:29:34;;;;;;;;;;;;;;;8.57;100.00;99479.22;5240057;27;19932;-88
2024/04/23 19:31:59;;;;;;;;;;;;;;;8.58;100.00;99479.16;5213361;27;20364;-86
2024/04/23 19:34:25;;;;;;;;;;;;;;;8.57;100.00;99489.78;5242723;27;19943;-89
2024/04/23 19:36:50;;;;;;;;;;;;;;;8.60;100.00;99484.38;5242682;27;19932;-88
2024/04/23 19:39:15;;;;;;;;;;;;;;;8.59;100.00;99485.34;5245100;27;20257;-85
2024/04/23 19:41:41;;;;;;;;;;;;;;;8.60;100.00;99481.75;5239693;27;20375;-83
2024/04/23 19:44:06;;;;;;;;;;;;;;;8.60;100.00;99484.38;5243037;27;19942;-83
2024/04/23 19:46:34;;;;;;;;;;;;;;;8.61;100.00;99486.13;5244950;27;19982;-86
2024/04/23 19:49:00;;;;;;;;;;;;;;;8.60;100.00;99494.97;5244815;27;19938;-86
2024/04/23 19:51:25;;;;;;;;;;;;;;;8.60;100.00;99487.91;5229489;27;19932;-84
2024/04/23 19:53:50;;;;;;;;;;;;;;;8.61;100.00;99488.75;5243181;27;19939;-87
2024/04/23 19:56:35;;;;;;;;;;;;;;;8.61;100.00;99483.47;5243114;27;19931;-88
2024/04/23 19:59:01;;;;;;;;;;;;;;;8.62;100.00;99487.84;5242331;27;19960;-85
2024/04/23 20:01:27;;;;;;;;;;;;;;;8.62;100.00;99482.56;5244937;27;20006;-86
2024/04/23 20:03:53;;;;;;;;;;;;;;;8.63;100.00;99479.00;5229455;27;19938;-86
2024/04/23 20:06:18;;;;;;;;;;;;;;;8.62;100.00;99482.56;5244713;27;20002;-86
2024/04/23 20:08:43;;;;;;;;;;;;;;;8.63;100.00;99479.88;5241751;27;20002;-88
2024/04/23 20:11:09;;;;;;;;;;;;;;;8.63;100.00;99484.28;5241662;27;20376;-89
2024/04/23 20:13:37;;;;;;;;;;;;;;;8.64;100.00;99484.22;5243016;27;19931;-86
2024/04/23 20:16:03;;;;;;;;;;;;;;;8.63;100.00;99481.63;5244980;27;19932;-84
2024/04/23 20:18:29;;;;;;;;;;;;;;;8.64;100.00;99480.72;5243352;27;19936;-86
2024/04/23 20:20:55;;;;;;;;;;;;;;;8.65;100.00;99478.03;5244849;27;19931;-89
2024/04/23 20:23:20;;;;;;;;;;;;;;;8.66;100.00;99484.16;5241580;27;19931;-90
2024/04/23 20:25:48;;;;;;;;;;;;;;;8.65;100.00;99479.81;5242783;27;19939;-90
2024/04/23 20:28:13;;;;;;;;;;;;;;;8.64;100.00;99468.38;5242490;27;19967;-89
2024/04/23 20:30:39;;;;;;;;;;;;;;;8.64;100.00;99471.00;5244564;27;20435;-89
2024/04/23 20:33:04;;;;;;;;;;;;;;;8.64;100.00;99473.66;5244651;27;19931;-88
2024/04/23 20:35:29;;;;;;;;;;;;;;;8.66;100.00;99476.22;5244610;27;19939;-88
2024/04/23 20:37:55;;;;;;;;;;;;;;;8.67;100.00;99470.03;5243190;27;20009;-90
2024/04/23 20:40:21;;;;;;;;;;;;;;;8.66;100.00;99473.59;5213378;27;19939;-86
2024/04/23 20:42:50;;;;;;;;;;;;;;;8.66;100.00;99478.88;5243521;27;19943;-86